createdAt,value
2023-04-23T00:01:08.829Z,99004.88
2023-04-23T00:03:37.887Z,98997.06
2023-04-23T00:06:06.909Z,98995.06
2023-04-23T00:08:36.712Z,98996.41
2023-04-23T00:11:07.122Z,98990.09
2023-04-23T00:13:35.532Z,98988.75
2023-04-23T00:16:04.212Z,98979.69
2023-04-23T00:18:32.602Z,98983.75
2023-04-23T00:21:00.929Z,98972.41
2023-04-23T00:23:29.720Z,98979.41
2023-04-23T00:25:59.214Z,98973.41
2023-04-23T00:28:27.738Z,98967.72
2023-04-23T00:30:55.962Z,98972.09
2023-04-23T00:33:24.205Z,98972.81
2023-04-23T00:35:52.676Z,98965.13
2023-04-23T00:38:21.445Z,98971.72
2023-04-23T00:40:49.649Z,98970.88
2023-04-23T00:43:19.412Z,98972.25
2023-04-23T00:45:47.808Z,98961.72
2023-04-23T00:48:15.997Z,98966.59
2023-04-23T00:50:44.097Z,98959.63
2023-04-23T00:53:12.643Z,98965.97
2023-04-23T00:55:41.684Z,98965.00
2023-04-23T00:58:10.001Z,98960.69
2023-04-23T01:00:44.736Z,98957.50
2023-04-23T01:03:13.551Z,98952.34
2023-04-23T01:05:44.064Z,98955.38
2023-04-23T01:08:15.934Z,98963.94
2023-04-23T01:10:44.859Z,98947.72
2023-04-23T01:13:13.573Z,98957.59
2023-04-23T01:15:43.946Z,98953.09
2023-04-23T01:18:12.912Z,98951.09
2023-04-23T01:20:41.315Z,98960.00
2023-04-23T01:23:11.070Z,98955.00
2023-04-23T01:25:39.178Z,98950.81
2023-04-23T01:28:07.764Z,98950.63
2023-04-23T01:30:37.069Z,98957.16
2023-04-23T01:33:06.376Z,98948.81
2023-04-23T01:35:34.969Z,98962.50
2023-04-23T01:38:03.974Z,98956.69
2023-04-23T01:40:33.948Z,98953.16
2023-04-23T01:43:02.535Z,98961.69
2023-04-23T01:45:31.385Z,98954.47
2023-04-23T01:48:00.107Z,98973.22
2023-04-23T01:50:30.130Z,98967.03
2023-04-23T01:52:58.787Z,98965.88
2023-04-23T01:55:27.054Z,98960.88
2023-04-23T01:57:56.820Z,98966.22
2023-04-23T02:00:25.102Z,98952.84
2023-04-23T02:02:54.100Z,98961.69
2023-04-23T02:05:22.810Z,98950.81
2023-04-23T02:07:51.772Z,98962.16
2023-04-23T02:10:20.689Z,98958.50
2023-04-23T02:12:49.341Z,98954.47
2023-04-23T02:15:20.091Z,98965.38
2023-04-23T02:17:51.252Z,98964.72
2023-04-23T02:20:20.174Z,98969.03
2023-04-23T02:22:48.872Z,98969.22
2023-04-23T02:25:18.129Z,98964.72
2023-04-23T02:27:46.558Z,98968.22
2023-04-23T02:30:14.895Z,98960.69
2023-04-23T02:32:44.421Z,98966.22
2023-04-23T02:35:12.844Z,98963.19
2023-04-23T02:37:42.147Z,98966.56
2023-04-23T02:40:10.951Z,98964.88
2023-04-23T02:42:39.532Z,98967.25
2023-04-23T02:45:08.960Z,98963.88
2023-04-23T02:47:37.753Z,98967.56
2023-04-23T02:50:08.782Z,98976.25
2023-04-23T02:52:36.857Z,98977.59
2023-04-23T02:55:05.361Z,98977.94
2023-04-23T02:57:33.577Z,98982.63
2023-04-23T03:00:01.982Z,98979.75
2023-04-23T03:02:36.802Z,98981.94
2023-04-23T03:05:06.153Z,98980.13
2023-04-23T03:07:36.027Z,98968.06
2023-04-23T03:10:04.397Z,98976.59
2023-04-23T03:12:32.629Z,98978.59
2023-04-23T03:15:01.892Z,98972.91
2023-04-23T03:17:33.154Z,98976.25
2023-04-23T03:20:02.061Z,98989.63
2023-04-23T03:22:31.590Z,98979.25
2023-04-23T03:25:01.202Z,98987.94
2023-04-23T03:27:29.698Z,98985.63
2023-04-23T03:29:58.226Z,98985.78
2023-04-23T03:32:26.527Z,98993.66
2023-04-23T03:34:54.872Z,98993.31
2023-04-23T03:37:23.780Z,99000.66
2023-04-23T03:39:52.490Z,98998.66
2023-04-23T03:42:21.969Z,99001.00
2023-04-23T03:44:51.296Z,99007.03
2023-04-23T03:47:19.503Z,99006.88
2023-04-23T03:49:48.064Z,99000.34
2023-04-23T03:52:16.487Z,99009.72
2023-04-23T03:54:51.195Z,99005.19
2023-04-23T03:57:21.687Z,99011.38
2023-04-23T04:00:20.838Z,99009.38
2023-04-23T04:02:49.275Z,99023.41
2023-04-23T04:05:18.088Z,99013.91
2023-04-23T04:07:47.288Z,99016.59
2023-04-23T04:10:15.358Z,99015.22
2023-04-23T04:12:48.162Z,99010.38
2023-04-23T04:15:16.898Z,99009.72
2023-04-23T04:17:46.072Z,99014.03
2023-04-23T04:20:14.946Z,99016.25
2023-04-23T04:22:43.023Z,99022.06
2023-04-23T04:25:12.347Z,99020.78
2023-04-23T04:27:41.569Z,99020.25
2023-04-23T04:30:12.148Z,99014.72
2023-04-23T04:32:42.315Z,99017.41
2023-04-23T04:35:10.577Z,99021.75
2023-04-23T04:37:38.866Z,99022.75
2023-04-23T04:40:08.481Z,99016.56
2023-04-23T04:42:37.346Z,99018.25
2023-04-23T04:45:06.240Z,99027.63
2023-04-23T04:47:36.386Z,99015.25
2023-04-23T04:50:04.933Z,99026.13
2023-04-23T04:52:32.949Z,99032.47
2023-04-23T04:55:01.075Z,99033.16
2023-04-23T04:57:29.498Z,99032.13
2023-04-23T04:59:57.758Z,99034.47
2023-04-23T05:02:26.803Z,99039.00
2023-04-23T05:04:56.282Z,99037.16
2023-04-23T05:07:24.403Z,99039.16
2023-04-23T05:09:52.416Z,99038.50
2023-04-23T05:12:20.767Z,99034.50
2023-04-23T05:14:49.194Z,99034.81
2023-04-23T05:17:17.182Z,99036.81
2023-04-23T05:19:45.596Z,99034.47
2023-04-23T05:22:15.626Z,99037.81
2023-04-23T05:24:43.841Z,99030.63
2023-04-23T05:27:12.512Z,99028.13
2023-04-23T05:29:41.334Z,99041.53
2023-04-23T05:32:09.389Z,99046.19
2023-04-23T05:34:37.498Z,99044.50
2023-04-23T05:37:06.317Z,99044.50
2023-04-23T05:39:35.790Z,99045.84
2023-04-23T05:42:05.153Z,99049.88
2023-04-23T05:44:33.222Z,99053.06
2023-04-23T05:47:01.436Z,99061.91
2023-04-23T05:49:29.430Z,99063.25
2023-04-23T05:51:58.752Z,99065.41
2023-04-23T05:54:26.858Z,99058.91
2023-04-23T05:56:56.340Z,99063.91
2023-04-23T05:59:24.481Z,99062.94
2023-04-23T06:01:52.652Z,99066.28
2023-04-23T06:04:21.434Z,99068.97
2023-04-23T06:06:49.758Z,99077.31
2023-04-23T06:09:18.112Z,99080.69
2023-04-23T06:11:46.443Z,99084.34
2023-04-23T06:14:16.010Z,99084.53
2023-04-23T06:16:44.391Z,99092.22
2023-04-23T06:19:12.969Z,99097.56
2023-04-23T06:21:41.434Z,99098.56
2023-04-23T06:24:09.917Z,99102.41
2023-04-23T06:26:38.589Z,99108.47
2023-04-23T06:29:13.611Z,99114.47
2023-04-23T06:32:15.154Z,99121.19
2023-04-23T06:34:57.133Z,99122.03
2023-04-23T06:37:29.794Z,99119.34
2023-04-23T06:39:58.156Z,99118.16
2023-04-23T06:42:26.292Z,99119.84
2023-04-23T06:45:32.015Z,99125.03
2023-04-23T06:48:01.986Z,99130.22
2023-04-23T06:50:30.107Z,99133.25
2023-04-23T06:52:58.149Z,99145.31
2023-04-23T06:55:26.872Z,99149.00
2023-04-23T06:57:55.226Z,99144.97
2023-04-23T07:00:23.832Z,99146.97
2023-04-23T07:02:52.313Z,99145.97
2023-04-23T07:05:22.087Z,99143.13
2023-04-23T07:07:50.534Z,99143.78
2023-04-23T07:10:18.725Z,99143.59
2023-04-23T07:12:47.156Z,99143.28
2023-04-23T07:15:15.451Z,99146.13
2023-04-23T07:17:43.766Z,99147.97
2023-04-23T07:20:12.569Z,99155.66
2023-04-23T07:22:42.151Z,99151.28
2023-04-23T07:25:10.524Z,99161.31
2023-04-23T07:27:38.832Z,99159.13
2023-04-23T07:30:07.831Z,99160.28
2023-04-23T07:32:35.891Z,99159.56
2023-04-23T07:35:05.086Z,99166.44
2023-04-23T07:37:33.405Z,99162.53
2023-04-23T07:40:02.888Z,99161.34
2023-04-23T07:42:31.074Z,99166.19
2023-04-23T07:44:59.151Z,99172.06
2023-04-23T07:47:27.266Z,99182.22
2023-04-23T07:49:55.515Z,99175.50
2023-04-23T07:52:23.615Z,99183.19
2023-04-23T07:54:52.016Z,99186.84
2023-04-23T07:57:21.549Z,99181.09
2023-04-23T07:59:49.626Z,99183.00
2023-04-23T08:02:18.741Z,99190.34
2023-04-23T08:04:47.091Z,99186.97
2023-04-23T08:07:15.456Z,99194.31
2023-04-23T08:09:43.871Z,99200.50
2023-04-23T08:12:12.681Z,99199.13
2023-04-23T08:14:42.172Z,99211.94
2023-04-23T08:17:14.391Z,99207.44
2023-04-23T08:19:42.767Z,99213.53
2023-04-23T08:22:11.266Z,99214.72
2023-04-23T08:24:39.599Z,99218.09
2023-04-23T08:27:07.932Z,99218.13
2023-04-23T08:29:36.353Z,99216.81
2023-04-23T08:32:06.090Z,99211.81
2023-04-23T08:34:35.784Z,99210.03
2023-04-23T08:37:04.786Z,99215.88
2023-04-23T08:39:34.342Z,99218.59
2023-04-23T08:42:06.210Z,99215.41
2023-04-23T08:44:35.032Z,99211.50
2023-04-23T08:47:05.919Z,99201.84
2023-04-23T08:49:35.795Z,99197.41
2023-04-23T08:52:11.953Z,99199.78
2023-04-23T08:54:43.300Z,99195.81
2023-04-23T08:57:11.623Z,99188.59
2023-04-23T08:59:41.026Z,99191.44
2023-04-23T09:02:10.520Z,99196.13
2023-04-23T09:04:40.229Z,99209.59
2023-04-23T09:07:11.416Z,99201.38
2023-04-23T09:09:40.803Z,99196.03
2023-04-23T09:12:09.506Z,99192.09
2023-04-23T09:14:37.909Z,99190.44
2023-04-23T09:17:06.051Z,99183.41
2023-04-23T09:19:34.203Z,99167.44
2023-04-23T09:22:03.849Z,99169.63
2023-04-23T09:24:33.065Z,99163.78
2023-04-23T09:27:01.382Z,99168.94
2023-04-23T09:29:29.487Z,99165.81
2023-04-23T09:31:57.940Z,99144.00
2023-04-23T09:34:27.771Z,99141.72
2023-04-23T09:36:55.810Z,99155.44
2023-04-23T09:39:25.989Z,99165.66
2023-04-23T09:41:54.394Z,99158.78
2023-04-23T09:44:23.630Z,99157.91
2023-04-23T09:46:52.030Z,99165.63
2023-04-23T09:49:20.161Z,99157.13
2023-04-23T09:51:49.357Z,99160.78
2023-04-23T09:54:18.809Z,99177.22
2023-04-23T09:56:53.767Z,99182.06
2023-04-23T09:59:32.015Z,99169.97
2023-04-23T10:02:08.600Z,99159.53
2023-04-23T10:04:36.936Z,99153.59
2023-04-23T10:07:19.019Z,99145.91
2023-04-23T10:09:48.977Z,99131.47
2023-04-23T10:14:53.918Z,99100.31
2023-04-23T10:17:22.180Z,99114.06
2023-04-23T10:19:51.586Z,99122.13
2023-04-23T10:22:21.147Z,99119.91
2023-04-23T10:24:53.326Z,99114.53
2023-04-23T10:27:33.453Z,99121.56
2023-04-23T10:30:08.967Z,99124.03
2023-04-23T10:32:38.234Z,99124.91
2023-04-23T10:35:06.896Z,99131.53
2023-04-23T10:37:35.868Z,99132.25
2023-04-23T10:40:09.353Z,99121.09
2023-04-23T10:42:39.422Z,99127.63
2023-04-23T10:45:23.328Z,99131.25
2023-04-23T10:47:54.852Z,99124.00
2023-04-23T10:50:24.351Z,99117.19
2023-04-23T10:52:54.745Z,99121.16
2023-04-23T10:55:23.936Z,99117.16
2023-04-23T10:58:04.303Z,99119.34
2023-04-23T11:00:46.129Z,99113.31
2023-04-23T11:03:32.434Z,99107.47
2023-04-23T11:06:02.594Z,99107.53
2023-04-23T11:08:32.147Z,99099.44
2023-04-23T11:11:01.356Z,99108.69
2023-04-23T11:13:31.327Z,99102.78
2023-04-23T11:16:15.740Z,99108.53
2023-04-23T11:18:56.231Z,99111.53
2023-04-23T11:21:24.239Z,99112.81
2023-04-23T11:23:52.816Z,99105.19
2023-04-23T11:26:21.330Z,99108.13
2023-04-23T11:28:52.837Z,99120.19
2023-04-23T11:31:21.738Z,99121.09
2023-04-23T11:33:49.789Z,99124.53
2023-04-23T11:36:18.198Z,99119.44
2023-04-23T11:38:46.370Z,99124.53
2023-04-23T11:41:14.491Z,99128.63
2023-04-23T11:43:43.378Z,99140.91
2023-04-23T11:46:13.051Z,99131.31
2023-04-23T11:48:41.523Z,99137.69
2023-04-23T11:51:09.785Z,99143.63
2023-04-23T11:53:39.551Z,99142.00
2023-04-23T11:56:09.717Z,99136.69
2023-04-23T11:58:39.388Z,99145.00
2023-04-23T12:01:08.414Z,99151.97
2023-04-23T12:03:37.965Z,99137.75
2023-04-23T12:06:06.599Z,99146.56
2023-04-23T12:08:36.218Z,99150.50
2023-04-23T12:11:06.416Z,99159.78
2023-04-23T12:13:35.075Z,99146.88
2023-04-23T12:16:04.187Z,99149.75
2023-04-23T12:18:33.545Z,99146.59
2023-04-23T12:21:07.883Z,99150.84
2023-04-23T12:23:36.817Z,99145.97
2023-04-23T12:26:06.950Z,99151.13
2023-04-23T12:28:34.952Z,99148.25
2023-04-23T12:31:03.898Z,99165.25
2023-04-23T12:33:32.412Z,99170.94
2023-04-23T12:36:00.974Z,99173.34
2023-04-23T12:38:31.270Z,99184.16
2023-04-23T12:41:00.327Z,99181.84
2023-04-23T12:43:28.559Z,99178.47
2023-04-23T12:45:57.250Z,99190.78
2023-04-23T12:48:25.658Z,99183.91
2023-04-23T12:50:53.803Z,99194.78
2023-04-23T12:53:22.068Z,99203.78
2023-04-23T12:55:52.666Z,99202.13
2023-04-23T12:58:21.120Z,99212.69
2023-04-23T13:00:49.488Z,99202.19
2023-04-23T13:03:19.411Z,99211.53
2023-04-23T13:05:48.207Z,99212.00
2023-04-23T13:08:16.323Z,99212.63
2023-04-23T13:10:45.059Z,99207.09
2023-04-23T13:13:14.736Z,99203.75
2023-04-23T13:15:43.502Z,99209.97
2023-04-23T13:18:11.547Z,99204.19
2023-04-23T13:20:39.545Z,99210.16
2023-04-23T13:23:08.970Z,99212.69
2023-04-23T13:25:37.052Z,99214.09
2023-04-23T13:28:05.296Z,99209.56
2023-04-23T13:30:34.790Z,99222.19
2023-04-23T13:33:03.165Z,99217.13
2023-04-23T13:35:31.327Z,99218.31
2023-04-23T13:38:00.354Z,99221.00
2023-04-23T13:40:28.537Z,99226.56
2023-04-23T13:42:56.693Z,99231.72
2023-04-23T13:45:24.833Z,99234.28
2023-04-23T13:47:54.679Z,99240.91
2023-04-23T13:50:23.209Z,99226.13
2023-04-23T13:52:51.229Z,99233.31
2023-04-23T13:55:19.398Z,99237.44
2023-04-23T13:57:47.430Z,99239.19
2023-04-23T14:00:16.067Z,99230.66
2023-04-23T14:02:44.220Z,99225.22
2023-04-23T14:05:14.191Z,99225.50
2023-04-23T14:07:42.494Z,99232.13
2023-04-23T14:10:10.871Z,99221.22
2023-04-23T14:12:39.320Z,99238.69
2023-04-23T14:15:08.070Z,99234.84
2023-04-23T14:17:37.348Z,99233.44
2023-04-23T14:20:06.390Z,99241.56
2023-04-23T14:22:36.295Z,99225.38
2023-04-23T14:25:05.173Z,99241.75
2023-04-23T14:27:33.846Z,99243.59
2023-04-23T14:30:05.407Z,99223.31
2023-04-23T14:32:33.628Z,99240.59
2023-04-23T14:35:03.114Z,99239.94
2023-04-23T14:37:31.491Z,99238.97
2023-04-23T14:40:01.386Z,99232.47
2023-04-23T14:42:29.502Z,99235.78
2023-04-23T14:45:00.470Z,99237.25
2023-04-23T14:47:28.603Z,99231.38
2023-04-23T14:49:57.690Z,99232.72
2023-04-23T14:52:25.764Z,99225.97
2023-04-23T14:54:55.917Z,99229.75
2023-04-23T14:57:25.354Z,99238.69
2023-04-23T14:59:53.943Z,99238.84
2023-04-23T15:02:22.080Z,99232.00
2023-04-23T15:04:50.652Z,99240.81
2023-04-23T15:07:18.779Z,99241.16
2023-04-23T15:09:46.921Z,99248.03
2023-04-23T15:12:38.242Z,99241.75
2023-04-23T15:15:07.575Z,99264.25
2023-04-23T15:17:35.862Z,99251.69
2023-04-23T15:20:04.297Z,99250.44
2023-04-23T15:22:32.471Z,99245.06
2023-04-23T15:25:00.537Z,99243.91
2023-04-23T15:27:31.207Z,99241.53
2023-04-23T15:29:59.355Z,99247.00
2023-04-23T15:32:27.717Z,99251.59
2023-04-23T15:34:55.891Z,99257.81
2023-04-23T15:37:24.455Z,99250.91
2023-04-23T15:39:52.956Z,99247.44
2023-04-23T15:42:24.405Z,99246.72
2023-04-23T15:44:55.977Z,99235.19
2023-04-23T15:47:24.337Z,99241.31
2023-04-23T15:49:52.398Z,99254.25
2023-04-23T15:52:21.038Z,99251.03
2023-04-23T15:54:49.036Z,99248.41
2023-04-23T15:57:17.180Z,99253.84
2023-04-23T15:59:45.889Z,99260.50
2023-04-23T16:02:16.038Z,99265.47
2023-04-23T16:04:44.355Z,99263.72
2023-04-23T16:07:12.750Z,99260.56
2023-04-23T16:09:40.987Z,99262.09
2023-04-23T16:12:10.732Z,99265.16
2023-04-23T16:14:39.063Z,99268.66
2023-04-23T16:17:07.363Z,99270.25
2023-04-23T16:19:37.080Z,99267.00
2023-04-23T16:22:05.416Z,99266.47
2023-04-23T16:24:33.705Z,99272.78
2023-04-23T16:27:02.453Z,99281.69
2023-04-23T16:29:31.078Z,99288.53
2023-04-23T16:31:59.383Z,99289.13
2023-04-23T16:34:27.737Z,99277.66
2023-04-23T16:36:57.649Z,99290.94
2023-04-23T16:39:26.157Z,99285.56
2023-04-23T16:41:54.171Z,99290.44
2023-04-23T16:44:22.167Z,99299.31
2023-04-23T16:46:50.851Z,99302.41
2023-04-23T16:49:19.231Z,99307.09
2023-04-23T16:51:47.387Z,99312.94
2023-04-23T16:54:16.900Z,99318.41
2023-04-23T16:56:46.134Z,99324.28
2023-04-23T16:59:15.410Z,99323.97
2023-04-23T17:01:44.067Z,99321.56
2023-04-23T17:04:12.696Z,99323.56
2023-04-23T17:06:40.993Z,99328.00
2023-04-23T17:09:10.550Z,99324.81
2023-04-23T17:11:40.407Z,99326.09
2023-04-23T17:14:08.482Z,99330.91
2023-04-23T17:16:36.629Z,99338.22
2023-04-23T17:19:05.110Z,99344.03
2023-04-23T17:21:33.438Z,99341.97
2023-04-23T17:24:01.455Z,99337.84
2023-04-23T17:26:29.737Z,99333.84
2023-04-23T17:28:59.725Z,99344.31
2023-04-23T17:31:27.785Z,99350.34
2023-04-23T17:33:56.566Z,99356.00
2023-04-23T17:36:24.782Z,99348.13
2023-04-23T17:38:52.927Z,99355.84
2023-04-23T17:41:22.870Z,99353.34
2023-04-23T17:43:51.513Z,99349.81
2023-04-23T17:46:21.381Z,99356.69
2023-04-23T17:48:49.652Z,99347.53
2023-04-23T17:51:17.737Z,99352.94
2023-04-23T17:53:48.934Z,99373.38
2023-04-23T17:56:17.015Z,99377.75
2023-04-23T17:58:45.280Z,99367.16
2023-04-23T18:01:13.976Z,99381.31
2023-04-23T18:03:44.368Z,99378.00
2023-04-23T18:06:13.047Z,99376.75
2023-04-23T18:08:42.740Z,99387.59
2023-04-23T18:11:11.115Z,99383.84
2023-04-23T18:13:42.920Z,99386.78
2023-04-23T18:16:12.207Z,99400.13
2023-04-23T18:18:40.451Z,99400.53
2023-04-23T18:21:10.367Z,99395.97
2023-04-23T18:23:38.536Z,99407.03
2023-04-23T18:26:07.288Z,99415.16
2023-04-23T18:28:37.244Z,99432.25
2023-04-23T18:31:05.519Z,99436.00
2023-04-23T18:33:45.434Z,99433.91
2023-04-23T18:36:22.491Z,99432.44
2023-04-23T18:38:50.897Z,99430.59
2023-04-23T18:41:19.182Z,99443.09
2023-04-23T18:43:48.031Z,99432.25
2023-04-23T18:46:16.862Z,99431.41
2023-04-23T18:48:52.697Z,99440.59
2023-04-23T18:51:27.966Z,99447.84
2023-04-23T18:53:56.130Z,99456.81
2023-04-23T18:56:26.921Z,99443.44
2023-04-23T18:58:55.023Z,99448.84
2023-04-23T19:01:24.298Z,99470.53
2023-04-23T19:03:52.942Z,99481.16
2023-04-23T19:06:23.101Z,99487.63
2023-04-23T19:08:51.848Z,99479.66
2023-04-23T19:11:20.394Z,99475.69
2023-04-23T19:13:48.440Z,99498.41
2023-04-23T19:16:18.313Z,99502.78
2023-04-23T19:18:47.559Z,99501.72
2023-04-23T19:21:16.171Z,99501.25
2023-04-23T19:23:47.522Z,99494.56
2023-04-23T19:26:15.755Z,99493.28
2023-04-23T19:28:44.325Z,99501.63
2023-04-23T19:31:12.554Z,99510.31
2023-04-23T19:33:42.770Z,99502.38
2023-04-23T19:36:10.903Z,99509.63
2023-04-23T19:38:44.896Z,99513.50
2023-04-23T19:41:16.953Z,99516.41
2023-04-23T19:43:45.593Z,99513.88
2023-04-23T19:46:13.738Z,99513.63
2023-04-23T19:48:42.555Z,99517.38
2023-04-23T19:51:10.859Z,99532.13
2023-04-23T19:53:40.001Z,99538.53
2023-04-23T19:56:12.880Z,99549.56
2023-04-23T19:58:44.338Z,99553.00
2023-04-23T20:01:13.248Z,99537.16
2023-04-23T20:03:43.241Z,99543.38
2023-04-23T20:06:12.486Z,99538.50
2023-04-23T20:09:02.730Z,99538.50
2023-04-23T20:11:31.244Z,99558.91
2023-04-23T20:14:00.828Z,99563.84
2023-04-23T20:16:29.744Z,99563.81
2023-04-23T20:18:58.110Z,99575.84
2023-04-23T20:21:26.933Z,99578.94
2023-04-23T20:23:55.504Z,99574.56
2023-04-23T20:26:23.623Z,99576.97
2023-04-23T20:28:52.018Z,99571.50
2023-04-23T20:31:22.284Z,99569.34
2023-04-23T20:33:50.640Z,99583.53
2023-04-23T20:36:20.096Z,99590.13
2023-04-23T20:38:48.415Z,99581.03
2023-04-23T20:41:17.165Z,99589.53
2023-04-23T20:43:45.243Z,99588.22
2023-04-23T20:46:13.663Z,99596.00
2023-04-23T20:48:43.499Z,99601.50
2023-04-23T20:51:11.871Z,99605.59
2023-04-23T20:53:40.233Z,99605.31
2023-04-23T20:56:08.396Z,99606.63
2023-04-23T20:58:36.724Z,99604.94
2023-04-23T21:01:07.521Z,99605.59
2023-04-23T21:03:37.095Z,99608.22
2023-04-23T21:06:08.072Z,99597.59
2023-04-23T21:08:38.278Z,99596.97
2023-04-23T21:11:11.278Z,99616.13
2023-04-23T21:13:39.372Z,99617.06
2023-04-23T21:16:07.760Z,99621.59
2023-04-23T21:18:36.080Z,99624.69
2023-04-23T21:21:04.271Z,99626.06
2023-04-23T21:23:34.040Z,99622.72
2023-04-23T21:26:02.101Z,99626.44
2023-04-23T21:28:30.800Z,99627.19
2023-04-23T21:31:05.044Z,99627.38
2023-04-23T21:33:37.857Z,99632.59
2023-04-23T21:36:07.628Z,99637.97
2023-04-23T21:38:37.759Z,99635.72
2023-04-23T21:41:06.444Z,99637.88
2023-04-23T21:43:35.659Z,99637.03
2023-04-23T21:46:03.882Z,99638.25
2023-04-23T21:48:33.547Z,99643.19
2023-04-23T21:51:05.017Z,99647.91
2023-04-23T21:53:35.273Z,99637.94
2023-04-23T21:56:06.199Z,99635.97
2023-04-23T21:58:35.847Z,99645.09
2023-04-23T22:01:04.117Z,99646.66
2023-04-23T22:03:37.536Z,99650.03
2023-04-23T22:06:06.630Z,99652.06
2023-04-23T22:08:34.854Z,99651.03
2023-04-23T22:11:03.751Z,99657.81
2023-04-23T22:13:35.177Z,99655.78
2023-04-23T22:16:13.462Z,99651.09
2023-04-23T22:18:49.316Z,99651.97
2023-04-23T22:21:20.700Z,99651.09
2023-04-23T22:23:50.106Z,99654.84
2023-04-23T22:26:18.192Z,99655.66
2023-04-23T22:28:51.861Z,99656.88
2023-04-23T22:31:23.908Z,99653.16
2023-04-23T22:33:54.525Z,99654.78
2023-04-23T22:36:23.734Z,99643.22
2023-04-23T22:38:52.105Z,99651.91
2023-04-23T22:41:20.144Z,99658.97
2023-04-23T22:43:50.338Z,99656.66
2023-04-23T22:46:18.461Z,99662.03
2023-04-23T22:48:47.820Z,99651.13
2023-04-23T22:51:16.017Z,99647.28
2023-04-23T22:53:44.180Z,99653.03
2023-04-23T22:56:12.659Z,99657.84
2023-04-23T22:58:40.785Z,99655.41
2023-04-23T23:01:10.523Z,99653.78
2023-04-23T23:03:38.729Z,99653.78
2023-04-23T23:06:07.509Z,99648.38
2023-04-23T23:08:35.810Z,99650.41
2023-04-23T23:11:03.900Z,99650.75
2023-04-23T23:13:32.325Z,99654.47
2023-04-23T23:16:02.495Z,99660.22
2023-04-23T23:18:32.997Z,99659.75
2023-04-23T23:21:01.377Z,99658.25
2023-04-23T23:23:29.504Z,99664.31
2023-04-23T23:25:59.971Z,99660.94
2023-04-23T23:28:28.343Z,99664.81
2023-04-23T23:30:57.961Z,99656.09
2023-04-23T23:33:26.092Z,99661.16
2023-04-23T23:35:55.889Z,99662.19
2023-04-23T23:38:24.181Z,99659.69
2023-04-23T23:40:52.321Z,99666.25
2023-04-23T23:43:20.502Z,99666.06
2023-04-23T23:45:48.692Z,99661.69
2023-04-23T23:48:17.038Z,99671.66
2023-04-23T23:50:45.198Z,99671.66
2023-04-23T23:53:14.759Z,99678.69
2023-04-23T23:55:43.088Z,99678.56
2023-04-23T23:58:11.492Z,99677.72
